Time;durP1;ratioP1;P1;durP2;ratioP2;P2;SDS_P1;SDS_P2;PMS_P1;PMS_P2;Temp;Humidity;BMP_temperature;BMP_pressure;BME280_temperature;BME280_humidity;BME280_pressure;Samples;Min_cycle;Max_cycle;Signal;HPM_P1;HPM_P2
2023/05/25 00:00:58;;;;;;;12.05;4.18;;;;;11.50;99101.00;;;;5052717;28;20491;-64
2023/05/25 00:03:30;;;;;;;10.20;4.20;;;;;11.60;99101.00;;;;5053117;28;20103;-64
2023/05/25 00:06:01;;;;;;;8.32;4.30;;;;;11.60;99095.00;;;;5052711;28;20033;-64
2023/05/25 00:08:28;;;;;;;10.38;3.97;;;;;11.50;99095.00;;;;5035767;28;20123;-64
2023/05/25 00:10:55;;;;;;;7.30;3.67;;;;;11.50;99090.00;;;;5053638;28;20049;-64
2023/05/25 00:13:22;;;;;;;7.47;3.55;;;;;11.40;99103.00;;;;5053892;28;20049;-64
2023/05/25 00:15:48;;;;;;;11.20;4.15;;;;;11.40;99096.00;;;;5053433;28;20041;-64
2023/05/25 00:18:15;;;;;;;12.27;3.78;;;;;11.40;99100.00;;;;5056816;28;20119;-63
2023/05/25 00:20:43;;;;;;;10.20;4.00;;;;;11.30;99094.00;;;;5059402;28;20044;-64
2023/05/25 00:23:10;;;;;;;9.48;3.80;;;;;11.30;99083.00;;;;5058259;28;20532;-65
2023/05/25 00:25:36;;;;;;;10.70;4.18;;;;;11.30;99086.00;;;;5058525;28;20069;-64
2023/05/25 00:28:03;;;;;;;14.70;4.78;;;;;11.20;99086.00;;;;5058390;28;20076;-64
2023/05/25 00:30:30;;;;;;;9.65;4.07;;;;;11.20;99087.00;;;;5057904;28;20497;-63
2023/05/25 00:33:00;;;;;;;11.93;4.15;;;;;11.10;99084.00;;;;5060252;28;20044;-64
2023/05/25 00:35:27;;;;;;;9.85;3.78;;;;;11.20;99087.00;;;;5057469;28;20053;-65
2023/05/25 00:37:53;;;;;;;9.23;3.90;;;;;11.10;99098.00;;;;5052128;28;20037;-62
2023/05/25 00:40:20;;;;;;;11.48;4.35;;;;;11.10;99089.00;;;;5052693;28;20045;-63
2023/05/25 00:42:47;;;;;;;7.60;4.22;;;;;11.10;99090.00;;;;5052989;28;20079;-63
2023/05/25 00:45:14;;;;;;;10.63;4.03;;;;;11.10;99081.00;;;;5052597;28;20041;-63
2023/05/25 00:47:42;;;;;;;10.05;4.57;;;;;11.10;99089.00;;;;5051315;28;20045;-63
2023/05/25 00:50:12;;;;;;;12.23;4.03;;;;;11.00;99081.00;;;;5052440;28;20041;-63
2023/05/25 00:52:39;;;;;;;7.82;3.92;;;;;11.00;99087.00;;;;5052926;28;20094;-63
2023/05/25 00:55:10;;;;;;;12.55;4.38;;;;;11.00;99095.00;;;;5051200;28;20059;-63
2023/05/25 00:57:40;;;;;;;12.40;5.05;;;;;11.00;99094.00;;;;5051544;28;20045;-63
2023/05/25 01:00:10;;;;;;;10.82;3.60;;;;;10.90;99097.00;;;;5051079;28;20140;-63
2023/05/25 01:02:39;;;;;;;12.60;4.10;;;;;10.80;99093.00;;;;5051984;28;20114;-62
2023/05/25 01:05:10;;;;;;;8.93;4.43;;;;;10.80;99081.00;;;;5051188;28;20517;-62
2023/05/25 01:07:39;;;;;;;8.43;3.60;;;;;10.80;99091.00;;;;5051365;28;20139;-63
2023/05/25 01:10:08;;;;;;;8.32;3.80;;;;;10.70;99092.00;;;;5052152;28;20069;-63
2023/05/25 01:12:37;;;;;;;9.43;4.38;;;;;10.70;99094.00;;;;5050936;28;20065;-63
2023/05/25 01:15:05;;;;;;;11.88;4.55;;;;;10.70;99096.00;;;;5050417;28;20103;-63
2023/05/25 01:17:31;;;;;;;7.55;3.90;;;;;10.60;99091.00;;;;5034596;28;20502;-63
2023/05/25 01:19:58;;;;;;;9.48;4.63;;;;;10.60;99087.00;;;;5050660;28;20041;-63
2023/05/25 01:22:44;;;;;;;9.52;4.68;;;;;10.60;99084.00;;;;5052325;28;20456;-63
2023/05/25 01:25:21;;;;;;;11.00;4.25;;;;;10.70;99082.00;;;;5051038;28;20099;-63
2023/05/25 01:27:53;;;;;;;10.80;4.60;;;;;10.50;99087.00;;;;5050827;28;20048;-63
2023/05/25 01:30:24;;;;;;;7.32;4.20;;;;;10.40;99079.00;;;;5050633;28;20571;-63
2023/05/25 01:32:53;;;;;;;9.95;4.32;;;;;10.40;99089.00;;;;5052191;28;20075;-64
2023/05/25 01:35:20;;;;;;;11.02;5.13;;;;;10.50;99086.00;;;;5052089;28;20132;-63
2023/05/25 01:37:48;;;;;;;7.28;3.70;;;;;10.50;99089.00;;;;5034140;28;20056;-63
2023/05/25 01:40:15;;;;;;;11.25;3.90;;;;;10.40;99092.00;;;;5050488;28;20068;-63
2023/05/25 01:42:42;;;;;;;10.60;4.50;;;;;10.40;99091.00;;;;5050912;28;20040;-63
2023/05/25 01:45:10;;;;;;;11.55;4.60;;;;;10.40;99094.00;;;;5050105;28;20447;-63
2023/05/25 01:47:52;;;;;;;9.32;3.92;;;;;10.30;99084.00;;;;5051839;28;20041;-63
2023/05/25 01:50:37;;;;;;;10.55;4.28;;;;;10.20;99089.00;;;;5053793;28;20044;-63
2023/05/25 01:53:16;;;;;;;9.70;4.00;;;;;10.20;99094.00;;;;5055204;28;20091;-63
2023/05/25 01:55:51;;;;;;;9.50;4.78;;;;;10.30;99098.00;;;;5054364;28;20568;-63
2023/05/25 01:58:18;;;;;;;9.90;4.28;;;;;10.30;99098.00;;;;5053878;28;20037;-63
2023/05/25 02:00:48;;;;;;;9.57;4.68;;;;;10.30;99101.00;;;;5053092;28;20076;-63
2023/05/25 02:03:15;;;;;;;13.13;5.00;;;;;10.30;99112.00;;;;5035554;28;20087;-63
2023/05/25 02:05:42;;;;;;;9.27;4.00;;;;;10.30;99101.00;;;;5052180;28;20057;-63
2023/05/25 02:08:09;;;;;;;11.68;4.53;;;;;10.30;99093.00;;;;5052873;28;20051;-63
2023/05/25 02:10:36;;;;;;;9.32;3.95;;;;;10.20;99097.00;;;;5052858;28;20611;-64
2023/05/25 02:13:06;;;;;;;11.75;5.00;;;;;10.10;99095.00;;;;5051689;28;20080;-64
2023/05/25 02:15:33;;;;;;;5.47;3.90;;;;;10.00;99090.00;;;;5052382;28;20056;-64
2023/05/25 02:18:01;;;;;;;7.32;4.22;;;;;10.10;99087.00;;;;5035449;28;20498;-62
2023/05/25 02:20:29;;;;;;;12.07;4.40;;;;;10.10;99084.00;;;;5051581;28;20040;-64
2023/05/25 02:22:56;;;;;;;11.23;4.70;;;;;10.10;99083.00;;;;5053598;28;20061;-63
2023/05/25 02:25:23;;;;;;;8.95;4.13;;;;;10.10;99083.00;;;;5052026;28;20520;-63
2023/05/25 02:27:49;;;;;;;8.75;4.15;;;;;10.00;99085.00;;;;5053562;28;20053;-63
2023/05/25 02:30:16;;;;;;;9.73;4.00;;;;;10.00;99081.00;;;;5054915;28;20060;-63
2023/05/25 02:32:43;;;;;;;7.60;4.05;;;;;10.00;99082.00;;;;5055294;28;20049;-63
2023/05/25 02:35:10;;;;;;;7.55;3.85;;;;;10.00;99087.00;;;;5054930;28;20041;-63
2023/05/25 02:37:37;;;;;;;8.35;4.75;;;;;10.00;99072.00;;;;5061038;28;20068;-63
2023/05/25 02:40:05;;;;;;;10.73;4.75;;;;;10.10;99072.00;;;;5056016;28;20072;-63
2023/05/25 02:42:31;;;;;;;9.20;4.18;;;;;10.10;99070.00;;;;5055235;28;20045;-63
2023/05/25 02:44:58;;;;;;;10.95;4.50;;;;;10.10;99074.00;;;;5064411;28;20055;-63
2023/05/25 02:47:25;;;;;;;8.55;4.10;;;;;10.00;99082.00;;;;5064746;28;20053;-63
2023/05/25 02:49:51;;;;;;;14.52;4.53;;;;;10.00;99077.00;;;;5059325;28;20048;-63
2023/05/25 02:52:18;;;;;;;10.40;4.35;;;;;10.00;99087.00;;;;5063929;28;20520;-63
2023/05/25 02:54:45;;;;;;;9.70;4.22;;;;;10.00;99083.00;;;;5066295;28;20045;-63
2023/05/25 02:57:18;;;;;;;10.98;3.97;;;;;10.00;99086.00;;;;5055307;28;20090;-63
2023/05/25 02:59:45;;;;;;;10.48;4.05;;;;;10.00;99084.00;;;;5069789;28;20051;-62
2023/05/25 03:02:12;;;;;;;12.55;5.10;;;;;10.10;99079.00;;;;5072285;28;20053;-63
2023/05/25 03:04:40;;;;;;;11.75;4.15;;;;;10.10;99074.00;;;;5072391;28;20044;-62
2023/05/25 03:07:07;;;;;;;7.38;4.32;;;;;10.00;99070.00;;;;5056834;28;20083;-62
2023/05/25 03:09:34;;;;;;;8.95;4.47;;;;;9.90;99069.00;;;;5071367;28;20124;-62
2023/05/25 03:12:02;;;;;;;6.97;3.53;;;;;10.00;99083.00;;;;5070051;28;20068;-63
2023/05/25 03:14:29;;;;;;;9.13;4.20;;;;;10.00;99081.00;;;;5060905;28;20045;-63
2023/05/25 03:17:02;;;;;;;9.57;5.20;;;;;9.90;99081.00;;;;5057975;28;20076;-63
2023/05/25 03:19:29;;;;;;;7.20;4.25;;;;;9.90;99081.00;;;;5062541;28;20717;-63
2023/05/25 03:21:55;;;;;;;8.45;4.60;;;;;9.80;99083.00;;;;5056154;28;20076;-63
2023/05/25 03:24:22;;;;;;;11.02;4.72;;;;;9.80;99090.00;;;;5058238;28;20426;-64
2023/05/25 03:26:48;;;;;;;12.00;5.13;;;;;9.90;99089.00;;;;5054396;28;20470;-64
2023/05/25 03:29:16;;;;;;;9.90;4.88;;;;;9.90;99090.00;;;;5037642;28;20113;-64
2023/05/25 03:31:42;;;;;;;14.38;5.60;;;;;9.90;99096.00;;;;5054168;28;20048;-64
2023/05/25 03:34:09;;;;;;;8.77;5.18;;;;;9.90;99092.00;;;;5060030;28;20220;-64
2023/05/25 03:36:37;;;;;;;15.10;6.28;;;;;10.00;99100.00;;;;5045608;28;20049;-65
2023/05/25 03:39:05;;;;;;;22.23;10.57;;;;;10.00;99096.00;;;;5060258;28;20041;-65
2023/05/25 03:41:32;;;;;;;10.38;5.25;;;;;9.90;99092.00;;;;5044611;28;20045;-64
2023/05/25 03:43:59;;;;;;;11.75;4.97;;;;;9.90;99096.00;;;;5060480;28;20429;-65
2023/05/25 03:46:26;;;;;;;9.60;5.38;;;;;10.00;99100.00;;;;5060885;28;20091;-65
2023/05/25 03:48:55;;;;;;;12.18;5.40;;;;;10.10;99098.00;;;;5061060;28;20044;-64
2023/05/25 03:51:22;;;;;;;15.35;5.90;;;;;10.10;99097.00;;;;5050271;28;20059;-62
2023/05/25 03:53:48;;;;;;;12.35;5.35;;;;;10.10;99100.00;;;;5064430;28;20060;-63
2023/05/25 03:56:15;;;;;;;14.57;6.15;;;;;10.10;99104.00;;;;5060370;28;20045;-64
2023/05/25 03:58:42;;;;;;;10.52;5.45;;;;;10.10;99096.00;;;;5043898;28;20045;-63
2023/05/25 04:01:09;;;;;;;10.93;5.53;;;;;10.10;99109.00;;;;5061919;28;20061;-62
2023/05/25 04:03:36;;;;;;;9.50;4.93;;;;;10.10;99111.00;;;;5058392;28;20464;-63
2023/05/25 04:06:03;;;;;;;11.35;5.50;;;;;10.10;99122.00;;;;5058721;28;20567;-62
2023/05/25 04:08:30;;;;;;;11.43;4.82;;;;;10.10;99110.00;;;;5059539;28;20049;-63
2023/05/25 04:10:56;;;;;;;11.65;5.88;;;;;10.20;99119.00;;;;5043260;28;20053;-64
2023/05/25 04:13:23;;;;;;;9.80;5.07;;;;;10.20;99121.00;;;;5059338;28;20051;-63
2023/05/25 04:15:51;;;;;;;11.93;5.60;;;;;10.30;99121.00;;;;5059178;28;20048;-63
2023/05/25 04:18:21;;;;;;;14.60;5.32;;;;;10.40;99122.00;;;;5057499;28;20059;-64
2023/05/25 04:20:48;;;;;;;9.40;5.20;;;;;10.50;99127.00;;;;5058669;28;20041;-64
2023/05/25 04:23:18;;;;;;;9.68;5.18;;;;;10.50;99138.00;;;;5059183;28;20059;-63
2023/05/25 04:25:50;;;;;;;7.00;4.47;;;;;10.60;99133.00;;;;5043393;28;20092;-64
2023/05/25 04:28:17;;;;;;;12.15;5.43;;;;;10.60;99138.00;;;;5058917;28;20075;-65
2023/05/25 04:31:12;;;;;;;15.70;6.68;;;;;10.70;99144.00;;;;5058686;28;20068;-64
2023/05/25 04:33:49;;;;;;;14.27;6.95;;;;;10.80;99137.00;;;;5058847;28;20527;-64
2023/05/25 04:36:27;;;;;;;11.25;6.95;;;;;10.80;99144.00;;;;5043418;28;20114;-64
2023/05/25 04:38:54;;;;;;;12.85;6.00;;;;;10.90;99144.00;;;;5058045;28;20041;-65
2023/05/25 04:41:24;;;;;;;9.45;5.38;;;;;10.90;99140.00;;;;5058534;28;20580;-64
2023/05/25 04:43:53;;;;;;;12.05;5.82;;;;;11.00;99146.00;;;;5041683;28;20468;-63
2023/05/25 04:46:37;;;;;;;12.60;5.90;;;;;11.00;99148.00;;;;5043196;28;20413;-63
2023/05/25 04:49:08;;;;;;;9.57;5.70;;;;;11.10;99157.00;;;;5056332;28;20045;-64
2023/05/25 04:51:36;;;;;;;11.35;6.13;;;;;11.30;99166.00;;;;5056128;28;20567;-65
2023/05/25 04:54:02;;;;;;;14.57;5.75;;;;;11.40;99171.00;;;;5057833;28;20044;-65
2023/05/25 04:56:29;;;;;;;9.65;5.35;;;;;11.50;99170.00;;;;5058046;28;20061;-65
2023/05/25 04:58:56;;;;;;;11.85;6.20;;;;;11.60;99166.00;;;;5040183;28;20417;-64
2023/05/25 05:01:25;;;;;;;18.02;6.35;;;;;11.70;99163.00;;;;5057167;28;20072;-65
2023/05/25 05:03:55;;;;;;;14.32;5.82;;;;;11.70;99172.00;;;;5057024;28;20079;-65
2023/05/25 05:06:24;;;;;;;12.20;5.30;;;;;11.80;99160.00;;;;5040542;28;20052;-64
2023/05/25 05:08:51;;;;;;;10.98;5.32;;;;;11.90;99165.00;;;;5058022;28;20044;-64
2023/05/25 05:11:18;;;;;;;11.70;5.70;;;;;11.90;99180.00;;;;5043099;28;20498;-64
2023/05/25 05:13:44;;;;;;;10.13;5.32;;;;;12.00;99178.00;;;;5057656;28;20045;-65
2023/05/25 05:16:12;;;;;;;10.85;4.90;;;;;12.10;99181.00;;;;5057953;28;20045;-64
2023/05/25 05:18:39;;;;;;;7.50;4.63;;;;;12.10;99178.00;;;;5056160;28;20121;-65
2023/05/25 05:21:05;;;;;;;10.60;5.40;;;;;12.10;99188.00;;;;5040132;28;20095;-65
2023/05/25 05:23:34;;;;;;;8.00;4.72;;;;;12.10;99185.00;;;;5057840;28;20044;-65
2023/05/25 05:26:03;;;;;;;8.70;4.80;;;;;12.20;99187.00;;;;5057592;28;20418;-64
2023/05/25 05:28:30;;;;;;;15.40;5.45;;;;;12.30;99186.00;;;;5056572;28;20057;-64
2023/05/25 05:30:57;;;;;;;9.90;4.60;;;;;12.40;99182.00;;;;5039158;28;20049;-64
2023/05/25 05:33:24;;;;;;;14.23;6.00;;;;;12.40;99195.00;;;;5056349;28;20114;-64
2023/05/25 05:35:53;;;;;;;12.10;5.72;;;;;12.50;99198.00;;;;5039901;28;20113;-64
2023/05/25 05:38:21;;;;;;;10.40;5.00;;;;;12.60;99193.00;;;;5057091;28;20525;-65
2023/05/25 05:40:47;;;;;;;8.98;5.10;;;;;12.80;99193.00;;;;5056862;28;20044;-63
2023/05/25 05:43:19;;;;;;;14.43;5.32;;;;;12.90;99195.00;;;;5057131;28;20059;-64
2023/05/25 05:45:46;;;;;;;11.68;4.88;;;;;13.10;99201.00;;;;5056838;28;20041;-64
2023/05/25 05:48:12;;;;;;;9.82;4.47;;;;;13.00;99205.00;;;;5057705;28;20090;-64
2023/05/25 05:50:39;;;;;;;10.65;4.03;;;;;13.10;99205.00;;;;5058162;28;20082;-64
2023/05/25 05:53:09;;;;;;;9.90;4.35;;;;;13.10;99207.00;;;;5054009;28;20526;-64
2023/05/25 05:55:36;;;;;;;7.70;3.83;;;;;13.00;99210.00;;;;5053311;28;20045;-64
2023/05/25 05:58:03;;;;;;;12.25;4.35;;;;;13.10;99209.00;;;;5052930;28;20438;-64
2023/05/25 06:00:30;;;;;;;10.85;4.25;;;;;13.10;99206.00;;;;5052328;28;20072;-64
2023/05/25 06:02:57;;;;;;;11.73;4.10;;;;;13.10;99210.00;;;;5052162;28;20048;-64
2023/05/25 06:05:25;;;;;;;9.93;4.10;;;;;13.20;99204.00;;;;5052616;28;20123;-65
2023/05/25 06:07:54;;;;;;;11.18;4.45;;;;;13.20;99202.00;;;;5037060;28;20071;-65
2023/05/25 06:10:21;;;;;;;8.73;3.65;;;;;13.10;99197.00;;;;5052612;28;20072;-64
2023/05/25 06:12:48;;;;;;;11.00;3.80;;;;;13.10;99202.00;;;;5052556;28;20485;-64
2023/05/25 06:15:15;;;;;;;9.40;4.07;;;;;13.10;99202.00;;;;5054430;28;21011;-63
2023/05/25 06:17:45;;;;;;;9.75;3.72;;;;;13.10;99204.00;;;;5054408;28;20144;-63
2023/05/25 06:20:13;;;;;;;11.68;4.22;;;;;13.20;99199.00;;;;5037433;28;20041;-63
2023/05/25 06:22:41;;;;;;;10.02;3.90;;;;;13.30;99203.00;;;;5037986;28;20140;-64
2023/05/25 06:25:09;;;;;;;6.07;3.42;;;;;13.40;99207.00;;;;5054883;28;20076;-64
2023/05/25 06:27:36;;;;;;;7.72;3.20;;;;;13.30;99212.00;;;;5053800;28;20116;-64
2023/05/25 06:30:04;;;;;;;7.60;3.40;;;;;13.30;99211.00;;;;5053396;28;20047;-63
2023/05/25 06:32:30;;;;;;;7.63;3.30;;;;;13.50;99212.00;;;;5053030;28;20060;-64
2023/05/25 06:34:57;;;;;;;9.20;3.80;;;;;13.50;99222.00;;;;5053031;28;20080;-63
2023/05/25 06:37:24;;;;;;;8.80;4.00;;;;;13.50;99218.00;;;;5036890;28;20140;-64
2023/05/25 06:39:50;;;;;;;10.38;3.78;;;;;13.70;99203.00;;;;5036824;28;20045;-63
2023/05/25 06:42:17;;;;;;;7.78;3.53;;;;;13.80;99206.00;;;;5053019;28;20053;-64
2023/05/25 06:44:51;;;;;;;11.23;3.92;;;;;13.80;99207.00;;;;5038247;28;20049;-64
2023/05/25 06:47:18;;;;;;;9.35;3.50;;;;;13.80;99211.00;;;;5052761;28;20060;-64
2023/05/25 06:49:45;;;;;;;11.25;3.47;;;;;13.80;99204.00;;;;5037107;28;20045;-64
2023/05/25 06:52:12;;;;;;;10.05;3.40;;;;;13.90;99206.00;;;;5051437;28;20134;-64
2023/05/25 06:54:39;;;;;;;9.77;3.97;;;;;14.00;99204.00;;;;5051741;28;20136;-63
2023/05/25 06:57:05;;;;;;;9.25;3.78;;;;;14.10;99214.00;;;;5053888;28;20151;-65
2023/05/25 06:59:32;;;;;;;8.80;3.95;;;;;14.10;99217.00;;;;5052485;28;20053;-64
2023/05/25 07:01:59;;;;;;;11.50;3.70;;;;;14.20;99219.00;;;;5055987;28;20048;-64
2023/05/25 07:04:27;;;;;;;7.80;3.50;;;;;14.30;99218.00;;;;5053948;28;20047;-65
2023/05/25 07:06:54;;;;;;;8.35;3.70;;;;;14.40;99211.00;;;;5054240;28;20474;-65
2023/05/25 07:09:21;;;;;;;8.73;3.55;;;;;14.50;99211.00;;;;5036433;28;20077;-64
2023/05/25 07:11:47;;;;;;;7.97;3.63;;;;;14.60;99216.00;;;;5054795;28;20136;-64
2023/05/25 07:14:16;;;;;;;6.53;3.22;;;;;14.60;99209.00;;;;5057669;28;20041;-65
2023/05/25 07:16:43;;;;;;;8.88;4.60;;;;;14.70;99214.00;;;;5059294;28;20049;-64
2023/05/25 07:19:10;;;;;;;6.82;3.40;;;;;14.80;99216.00;;;;5059171;28;20071;-64
2023/05/25 07:21:37;;;;;;;12.00;3.67;;;;;15.00;99220.00;;;;5059316;28;20097;-64
2023/05/25 07:24:04;;;;;;;12.80;3.75;;;;;15.00;99225.00;;;;5061567;28;20518;-68
2023/05/25 07:26:32;;;;;;;13.40;4.68;;;;;15.10;99223.00;;;;5057974;28;20558;-65
2023/05/25 07:28:59;;;;;;;8.77;3.70;;;;;15.10;99224.00;;;;5057642;28;20044;-68
2023/05/25 07:31:26;;;;;;;9.50;3.35;;;;;15.10;99227.00;;;;5058709;28;20131;-65
2023/05/25 07:33:54;;;;;;;10.23;3.88;;;;;15.20;99223.00;;;;5040235;28;20045;-65
2023/05/25 07:36:23;;;;;;;8.68;3.20;;;;;15.30;99218.00;;;;5057155;28;20053;-66
2023/05/25 07:38:50;;;;;;;8.63;3.38;;;;;15.40;99227.00;;;;5056401;28;20477;-66
2023/05/25 07:41:16;;;;;;;6.93;3.15;;;;;15.40;99228.00;;;;5055805;28;20678;-65
2023/05/25 07:43:43;;;;;;;6.05;3.08;;;;;15.50;99223.00;;;;5054011;28;20471;-65
2023/05/25 07:46:10;;;;;;;9.48;3.08;;;;;15.60;99228.00;;;;5058963;28;20535;-64
2023/05/25 07:48:36;;;;;;;7.80;3.17;;;;;15.70;99227.00;;;;5061213;28;20078;-63
2023/05/25 07:51:03;;;;;;;6.32;3.40;;;;;15.60;99235.00;;;;5066467;28;20040;-63
2023/05/25 07:53:30;;;;;;;8.65;3.45;;;;;15.80;99222.00;;;;5058624;28;20533;-63
2023/05/25 07:55:56;;;;;;;10.95;3.97;;;;;15.80;99226.00;;;;5056208;28;20115;-63
2023/05/25 07:58:23;;;;;;;7.70;3.70;;;;;15.80;99227.00;;;;5053690;28;20622;-64
2023/05/25 08:00:50;;;;;;;7.95;3.58;;;;;15.90;99235.00;;;;5054524;28;20080;-64
2023/05/25 08:03:17;;;;;;;6.93;3.45;;;;;16.00;99239.00;;;;5052668;28;20048;-65
2023/05/25 08:05:47;;;;;;;9.68;3.30;;;;;16.00;99240.00;;;;5054015;28;20663;-65
2023/05/25 08:08:14;;;;;;;10.68;3.40;;;;;16.10;99241.00;;;;5053901;28;20506;-65
2023/05/25 08:10:41;;;;;;;8.98;3.17;;;;;16.10;99239.00;;;;5053863;28;20486;-65
2023/05/25 08:13:08;;;;;;;7.47;3.42;;;;;16.20;99240.00;;;;5053624;28;20047;-65
2023/05/25 08:15:34;;;;;;;11.60;3.58;;;;;16.40;99246.00;;;;5053574;28;20033;-65
2023/05/25 08:18:03;;;;;;;8.00;3.72;;;;;16.30;99248.00;;;;5052324;28;20076;-65
2023/05/25 08:20:30;;;;;;;9.95;3.38;;;;;16.30;99239.00;;;;5053724;28;20124;-65
2023/05/25 08:22:57;;;;;;;9.65;3.20;;;;;16.50;99226.00;;;;5053604;28;20060;-65
2023/05/25 08:25:24;;;;;;;8.75;3.60;;;;;16.50;99241.00;;;;5052775;28;20076;-65
2023/05/25 08:27:51;;;;;;;12.02;4.50;;;;;16.60;99229.00;;;;5053795;28;20047;-65
2023/05/25 08:30:17;;;;;;;12.23;3.85;;;;;16.80;99234.00;;;;5035151;28;20060;-64
2023/05/25 08:32:44;;;;;;;10.10;3.72;;;;;16.80;99228.00;;;;5053873;28;20448;-65
2023/05/25 08:35:12;;;;;;;9.90;3.95;;;;;16.80;99233.00;;;;5053433;28;20045;-64
2023/05/25 08:37:39;;;;;;;12.40;3.83;;;;;16.80;99244.00;;;;5054482;28;20127;-65
2023/05/25 08:40:07;;;;;;;8.77;3.28;;;;;16.90;99243.00;;;;5051910;28;20057;-64
2023/05/25 08:42:34;;;;;;;10.15;3.63;;;;;17.00;99250.00;;;;5053787;28;20505;-65
2023/05/25 08:45:01;;;;;;;8.75;3.50;;;;;17.20;99251.00;;;;5053557;28;20044;-65
2023/05/25 08:47:31;;;;;;;6.13;3.33;;;;;17.20;99251.00;;;;5052519;28;20048;-65
2023/05/25 08:50:00;;;;;;;7.15;3.50;;;;;17.20;99256.00;;;;5053729;28;20091;-65
2023/05/25 08:52:31;;;;;;;7.43;3.40;;;;;17.30;99257.00;;;;5053799;28;20131;-65
2023/05/25 08:55:02;;;;;;;14.57;4.05;;;;;17.30;99257.00;;;;5053616;28;20049;-65
2023/05/25 08:57:44;;;;;;;9.95;3.53;;;;;17.40;99250.00;;;;5053562;28;20065;-65
2023/05/25 09:00:14;;;;;;;9.85;3.30;;;;;17.40;99262.00;;;;5053579;28;20079;-65
2023/05/25 09:02:50;;;;;;;5.72;3.10;;;;;17.50;99261.00;;;;5035813;28;20468;-66
2023/05/25 09:05:17;;;;;;;8.02;3.17;;;;;17.60;99262.00;;;;5052974;28;20102;-66
2023/05/25 09:07:45;;;;;;;10.43;3.50;;;;;17.80;99256.00;;;;5051972;28;20053;-64
2023/05/25 09:10:13;;;;;;;12.65;3.50;;;;;17.80;99255.00;;;;5053098;28;20482;-66
2023/05/25 09:12:41;;;;;;;10.43;2.90;;;;;17.80;99250.00;;;;5051718;28;20681;-65
2023/05/25 09:15:11;;;;;;;6.68;3.15;;;;;17.80;99257.00;;;;5052937;28;20127;-65
2023/05/25 09:17:39;;;;;;;7.60;2.70;;;;;17.80;99256.00;;;;5052142;28;20140;-66
2023/05/25 09:20:09;;;;;;;7.45;2.85;;;;;17.90;99257.00;;;;5052748;28;20056;-65
2023/05/25 09:22:36;;;;;;;6.13;2.95;;;;;18.00;99251.00;;;;5053314;28;20049;-65
2023/05/25 09:25:05;;;;;;;9.98;3.58;;;;;18.10;99253.00;;;;5053907;28;20098;-64
2023/05/25 09:27:34;;;;;;;9.40;3.42;;;;;18.10;99247.00;;;;5055164;28;20041;-67
2023/05/25 09:30:01;;;;;;;6.05;3.10;;;;;18.20;99247.00;;;;5052520;28;20047;-66
2023/05/25 09:32:28;;;;;;;9.25;2.92;;;;;18.30;99259.00;;;;5052501;28;20041;-66
2023/05/25 09:34:56;;;;;;;6.78;2.70;;;;;18.40;99255.00;;;;5052572;28;20052;-66
2023/05/25 09:37:23;;;;;;;8.30;3.05;;;;;18.50;99259.00;;;;5052831;28;20159;-65
2023/05/25 09:39:51;;;;;;;10.63;3.92;;;;;18.50;99264.00;;;;5052102;28;20044;-66
2023/05/25 09:42:18;;;;;;;6.80;2.75;;;;;18.70;99262.00;;;;5052482;28;20040;-65
2023/05/25 09:44:44;;;;;;;7.57;3.00;;;;;18.80;99270.00;;;;5052444;28;20045;-65
2023/05/25 09:47:12;;;;;;;7.38;3.08;;;;;18.70;99273.00;;;;5051122;28;20520;-66
2023/05/25 09:49:40;;;;;;;5.78;2.80;;;;;18.90;99274.00;;;;5052770;28;20052;-64
2023/05/25 09:52:07;;;;;;;8.32;3.55;;;;;18.80;99270.00;;;;5052412;28;20045;-63
2023/05/25 09:54:35;;;;;;;7.30;2.90;;;;;18.90;99271.00;;;;5052035;28;20501;-63
2023/05/25 09:57:03;;;;;;;9.68;3.60;;;;;18.90;99271.00;;;;5052792;28;20055;-64
2023/05/25 09:59:30;;;;;;;10.32;3.33;;;;;19.00;99270.00;;;;5052667;28;20055;-63
2023/05/25 10:01:57;;;;;;;5.95;2.97;;;;;19.00;99281.00;;;;5052730;28;20421;-65
2023/05/25 10:04:23;;;;;;;6.95;3.47;;;;;18.90;99271.00;;;;5050535;28;20132;-65
2023/05/25 10:06:50;;;;;;;10.27;3.60;;;;;19.00;99272.00;;;;5052449;28;20445;-62
2023/05/25 10:09:18;;;;;;;7.78;3.22;;;;;19.00;99277.00;;;;5051678;28;20052;-64
2023/05/25 10:11:46;;;;;;;7.38;2.83;;;;;19.10;99274.00;;;;5051589;28;20045;-63
2023/05/25 10:14:18;;;;;;;8.40;3.00;;;;;19.30;99281.00;;;;5052604;28;20047;-63
2023/05/25 10:16:48;;;;;;;8.82;3.47;;;;;19.30;99273.00;;;;5052628;28;20127;-63
2023/05/25 10:19:25;;;;;;;7.45;3.50;;;;;19.20;99275.00;;;;5051933;28;20052;-64
2023/05/25 10:22:12;;;;;;;10.43;3.63;;;;;19.30;99270.00;;;;5050060;28;20068;-64
2023/05/25 10:25:09;;;;;;;9.57;3.60;;;;;19.30;99266.00;;;;5049640;28;20120;-64
2023/05/25 10:27:42;;;;;;;7.80;3.53;;;;;19.30;99263.00;;;;5048797;28;20044;-64
2023/05/25 10:30:10;;;;;;;6.82;3.13;;;;;19.40;99271.00;;;;5048337;28;20052;-62
2023/05/25 10:32:37;;;;;;;5.88;3.17;;;;;19.40;99254.00;;;;5049743;28;20048;-64
2023/05/25 10:35:05;;;;;;;5.18;2.80;;;;;19.50;99257.00;;;;5049704;28;20040;-64
2023/05/25 10:37:33;;;;;;;7.38;3.00;;;;;19.60;99267.00;;;;5050392;28;20076;-64
2023/05/25 10:40:00;;;;;;;7.07;3.35;;;;;19.90;99256.00;;;;5049974;28;20529;-64
2023/05/25 10:42:29;;;;;;;7.72;3.22;;;;;19.80;99269.00;;;;5051304;28;20052;-63
2023/05/25 10:44:56;;;;;;;6.88;3.53;;;;;19.80;99272.00;;;;5050074;28;20102;-64
2023/05/25 10:47:24;;;;;;;9.00;3.13;;;;;19.80;99274.00;;;;5050388;28;20040;-63
2023/05/25 10:49:59;;;;;;;5.88;2.88;;;;;19.90;99273.00;;;;5053557;28;20461;-64
2023/05/25 10:52:27;;;;;;;6.80;3.13;;;;;19.90;99273.00;;;;5054081;28;20399;-64
2023/05/25 10:55:00;;;;;;;7.22;3.38;;;;;20.00;99280.00;;;;5054159;28;20045;-63
2023/05/25 10:57:27;;;;;;;10.52;3.10;;;;;20.00;99277.00;;;;5054241;28;20060;-64
2023/05/25 11:00:00;;;;;;;7.85;3.50;;;;;19.90;99277.00;;;;5053477;28;20525;-63
2023/05/25 11:02:27;;;;;;;7.70;2.40;;;;;20.10;99281.00;;;;5055210;28;20076;-63
2023/05/25 11:05:26;;;;;;;4.55;2.58;;;;;20.10;99282.00;;;;5053806;28;20044;-63
2023/05/25 11:07:57;;;;;;;9.70;3.30;;;;;20.20;99281.00;;;;5053589;28;20136;-63
2023/05/25 11:10:43;;;;;;;11.13;3.03;;;;;20.10;99278.00;;;;5053139;28;20049;-63
2023/05/25 11:13:24;;;;;;;10.32;2.70;;;;;20.20;99275.00;;;;5054810;28;20041;-63
2023/05/25 11:16:28;;;;;;;7.95;3.05;;;;;20.30;99283.00;;;;5037019;28;20045;-64
2023/05/25 11:18:58;;;;;;;4.73;2.30;;;;;20.30;99271.00;;;;4999240;28;20132;-63
2023/05/25 11:21:29;;;;;;;4.93;2.28;;;;;20.30;99276.00;;;;5051046;28;20083;-64
2023/05/25 11:24:10;;;;;;;8.18;2.70;;;;;20.50;99290.00;;;;5054546;28;20044;-64
2023/05/25 11:26:51;;;;;;;4.85;2.60;;;;;20.40;99278.00;;;;5054795;28;20048;-64
2023/05/25 11:29:19;;;;;;;6.07;2.55;;;;;20.40;99277.00;;;;5054331;28;20084;-64
2023/05/25 11:31:51;;;;;;;4.25;2.33;;;;;20.40;99276.00;;;;5053067;28;20143;-64
2023/05/25 11:34:20;;;;;;;7.28;3.00;;;;;20.40;99267.00;;;;5053400;28;20045;-64
2023/05/25 11:36:47;;;;;;;6.93;2.90;;;;;20.50;99265.00;;;;5053383;28;20567;-64
2023/05/25 11:39:13;;;;;;;7.07;2.88;;;;;20.70;99270.00;;;;5054175;28;20127;-64
2023/05/25 11:41:54;;;;;;;4.40;2.75;;;;;20.70;99273.00;;;;5054650;28;20045;-64
2023/05/25 11:44:27;;;;;;;9.68;2.60;;;;;20.70;99267.00;;;;5063029;28;20135;-63
2023/05/25 11:47:00;;;;;;;7.43;3.05;;;;;20.70;99267.00;;;;5049790;28;20049;-64
2023/05/25 11:49:27;;;;;;;6.20;3.45;;;;;20.70;99264.00;;;;5057298;28;20162;-64
2023/05/25 11:51:56;;;;;;;7.72;3.25;;;;;20.60;99263.00;;;;5056296;28;20041;-63
2023/05/25 11:54:27;;;;;;;8.55;2.58;;;;;20.80;99265.00;;;;5057902;28;20113;-64
2023/05/25 11:56:57;;;;;;;4.03;2.50;;;;;20.90;99263.00;;;;5055522;28;20049;-64
2023/05/25 11:59:26;;;;;;;7.93;2.58;;;;;21.10;99258.00;;;;5052982;28;20037;-64
2023/05/25 12:02:02;;;;;;;6.38;3.15;;;;;21.00;99252.00;;;;5054269;28;20462;-64
2023/05/25 12:04:31;;;;;;;4.18;2.58;;;;;21.10;99257.00;;;;5054119;28;20056;-63
2023/05/25 12:07:03;;;;;;;5.88;2.90;;;;;21.20;99256.00;;;;5053961;28;20124;-64
2023/05/25 12:09:30;;;;;;;6.85;2.60;;;;;21.30;99257.00;;;;5036383;28;20052;-64
2023/05/25 12:11:57;;;;;;;5.47;3.55;;;;;21.40;99252.00;;;;5054095;28;20132;-64
2023/05/25 12:14:24;;;;;;;5.63;3.10;;;;;21.60;99264.00;;;;5035960;28;20114;-64
2023/05/25 12:16:51;;;;;;;4.38;2.78;;;;;21.40;99258.00;;;;5052680;28;20411;-64
2023/05/25 12:19:18;;;;;;;7.30;2.80;;;;;21.40;99253.00;;;;5053499;28;20059;-64
2023/05/25 12:21:46;;;;;;;4.30;2.85;;;;;21.40;99258.00;;;;5053649;28;20037;-62